Time;durP1;ratioP1;P1;durP2;ratioP2;P2;SDS_P1;SDS_P2;PMS_P1;PMS_P2;Temp;Humidity;BMP_temperature;BMP_pressure;BME280_temperature;BME280_humidity;BME280_pressure;Samples;Min_cycle;Max_cycle;Signal;HPM_P1;HPM_P2
2022/11/12 00:02:09;;;;;;;;;;;;;;;;;;4933532;28;20326;-63
2022/11/12 00:04:34;;;;;;;;;;;;;;;;;;4933462;28;20232;-62
2022/11/12 00:06:59;;;;;;;;;;;;;;;;;;4933343;28;20233;-62
2022/11/12 00:09:25;;;;;;;;;;;;;;;;;;4933524;28;20348;-62
2022/11/12 00:11:50;;;;;;;;;;;;;;;;;;4933143;28;20375;-62
2022/11/12 00:14:15;;;;;;;;;;;;;;;;;;4933924;28;20361;-62
2022/11/12 00:16:41;;;;;;;;;;;;;;;;;;4833792;28;20434;-62
2022/11/12 00:19:15;;;;;;;;;;;;;;;;;;5023112;27;1932173;-62
2022/11/12 00:21:40;;;;;;;;;;;;;;;;;;5086923;27;19950;-62
2022/11/12 00:24:06;;;;;;;;;;;;;;;;;;5086907;27;20067;-62
2022/11/12 00:26:31;;;;;;;;;;;;;;;;;;5086536;27;19915;-61
2022/11/12 00:28:56;;;;;;;;;;;;;;;;;;5087030;27;19938;-62
2022/11/12 00:31:22;;;;;;;;;;;;;;;;;;5086558;27;20391;-61
2022/11/12 00:33:47;;;;;;;;;;;;;;;;;;5087185;27;20337;-62
2022/11/12 00:36:12;;;;;;;;;;;;;;;;;;5086791;27;20038;-62
2022/11/12 00:38:38;;;;;;;;;;;;;;;;;;5086648;27;20198;-62
2022/11/12 00:41:03;;;;;;;;;;;;;;;;;;5086617;27;20314;-62
2022/11/12 00:43:29;;;;;;;;;;;;;;;;;;5086151;27;20358;-62
2022/11/12 00:45:54;;;;;;;;;;;;;;;;;;5086565;27;20357;-61
2022/11/12 00:48:19;;;;;;;;;;;;;;;;;;5086235;27;20352;-61
2022/11/12 00:50:45;;;;;;;;;;;;;;;;;;5086771;27;19915;-62
2022/11/12 00:53:10;;;;;;;;;;;;;;;;;;5086029;27;19984;-62
2022/11/12 00:55:35;;;;;;;;;;;;;;;;;;5086715;27;20336;-62
2022/11/12 00:58:01;;;;;;;;;;;;;;;;;;5086427;27;20290;-62
2022/11/12 01:00:26;;;;;;;;;;;;;;;;;;5086093;27;20332;-62
2022/11/12 01:02:51;;;;;;;;;;;;;;;;;;5072178;27;20341;-61
2022/11/12 01:05:18;;;;;;;;;;;;;;;;;;5085633;27;20326;-62
2022/11/12 01:07:43;;;;;;;;;;;;;;;;;;5086396;27;19915;-62
2022/11/12 01:10:09;;;;;;;;;;;;;;;;;;5087602;27;19987;-62
2022/11/12 01:12:35;;;;;;;;;;;;;;;;;;5087261;27;20222;-62
2022/11/12 01:15:01;;;;;;;;;;;;;;;;;;5086024;27;19938;-62
2022/11/12 01:17:26;;;;;;;;;;;;;;;;;;5085381;27;20321;-62
2022/11/12 01:19:52;;;;;;;;;;;;;;;;;;5085801;27;20289;-62
2022/11/12 01:22:17;;;;;;;;;;;;;;;;;;5085983;27;19915;-62
2022/11/12 01:24:42;;;;;;;;;;;;;;;;;;5087517;27;20209;-62
2022/11/12 01:27:08;;;;;;;;;;;;;;;;;;5086312;27;19991;-62
2022/11/12 01:29:33;;;;;;;;;;;;;;;;;;5078708;27;19983;-61
2022/11/12 01:31:58;;;;;;;;;;;;;;;;;;5072234;27;20235;-61
2022/11/12 01:34:24;;;;;;;;;;;;;;;;;;5072155;27;20278;-61
2022/11/12 01:36:50;;;;;;;;;;;;;;;;;;5071822;27;20231;-62
2022/11/12 01:39:15;;;;;;;;;;;;;;;;;;5071963;27;20285;-61
2022/11/12 01:41:41;;;;;;;;;;;;;;;;;;5072230;27;19939;-61
2022/11/12 01:44:16;;;;;;;;;;;;;;;;;;5071606;27;20242;-62
2022/11/12 01:46:50;;;;;;;;;;;;;;;;;;5070334;27;20257;-62
2022/11/12 01:49:34;;;;;;;;;;;;;;;;;;5051596;28;20362;-62
2022/11/12 01:52:15;;;;;;;;;;;;;;;;;;5032956;28;19919;-61
2022/11/12 01:54:42;;;;;;;;;;;;;;;;;;5051035;28;20333;-62
2022/11/12 01:57:08;;;;;;;;;;;;;;;;;;5051160;28;20314;-62
2022/11/12 01:59:40;;;;;;;;;;;;;;;;;;5015953;28;20219;-62
2022/11/12 02:02:05;;;;;;;;;;;;;;;;;;5033644;28;20398;-61
2022/11/12 02:04:32;;;;;;;;;;;;;;;;;;5051296;28;20318;-62
2022/11/12 02:06:58;;;;;;;;;;;;;;;;;;5032896;28;19954;-62
2022/11/12 02:09:24;;;;;;;;;;;;;;;;;;5051544;28;20369;-63
2022/11/12 02:11:49;;;;;;;;;;;;;;;;;;5032769;28;20346;-62
2022/11/12 02:14:14;;;;;;;;;;;;;;;;;;5050869;28;20239;-61
2022/11/12 02:16:42;;;;;;;;;;;;;;;;;;5051195;28;20347;-62
2022/11/12 02:19:10;;;;;;;;;;;;;;;;;;5029107;28;19920;-62
2022/11/12 02:21:36;;;;;;;;;;;;;;;;;;5030935;28;20357;-61
2022/11/12 02:24:25;;;;;;;;;;;;;;;;;;5031064;28;20245;-62
2022/11/12 02:26:54;;;;;;;;;;;;;;;;;;5030875;28;20349;-62
2022/11/12 02:29:20;;;;;;;;;;;;;;;;;;5030773;28;20242;-62
2022/11/12 02:31:45;;;;;;;;;;;;;;;;;;5030568;28;20282;-62
2022/11/12 02:34:10;;;;;;;;;;;;;;;;;;5030365;28;20226;-61
2022/11/12 02:36:36;;;;;;;;;;;;;;;;;;5031788;28;19916;-61
2022/11/12 02:39:01;;;;;;;;;;;;;;;;;;5030143;28;20338;-61
2022/11/12 02:41:27;;;;;;;;;;;;;;;;;;5029656;28;20389;-62
2022/11/12 02:43:52;;;;;;;;;;;;;;;;;;5030286;28;20296;-61
2022/11/12 02:46:18;;;;;;;;;;;;;;;;;;5030251;28;20374;-62
2022/11/12 02:48:43;;;;;;;;;;;;;;;;;;5030268;28;20291;-61
2022/11/12 02:51:09;;;;;;;;;;;;;;;;;;5030005;28;20235;-62
2022/11/12 02:53:34;;;;;;;;;;;;;;;;;;5031827;28;20302;-62
2022/11/12 02:56:00;;;;;;;;;;;;;;;;;;5044652;28;20337;-62
2022/11/12 02:58:25;;;;;;;;;;;;;;;;;;5050804;28;20002;-62
2022/11/12 03:00:52;;;;;;;;;;;;;;;;;;5050294;28;19916;-61
2022/11/12 03:03:18;;;;;;;;;;;;;;;;;;5050509;28;19916;-62
2022/11/12 03:05:44;;;;;;;;;;;;;;;;;;5050756;28;20333;-62
2022/11/12 03:08:10;;;;;;;;;;;;;;;;;;5050058;28;20261;-62
2022/11/12 03:10:37;;;;;;;;;;;;;;;;;;5050122;28;19916;-61
2022/11/12 03:13:03;;;;;;;;;;;;;;;;;;5049569;28;20365;-61
2022/11/12 03:15:29;;;;;;;;;;;;;;;;;;5050177;28;20307;-62
2022/11/12 03:17:55;;;;;;;;;;;;;;;;;;5053869;27;19963;-62
2022/11/12 03:20:21;;;;;;;;;;;;;;;;;;5052431;27;19915;-62
2022/11/12 03:23:02;;;;;;;;;;;;;;;;;;5069679;27;19938;-62
2022/11/12 03:25:28;;;;;;;;;;;;;;;;;;5070500;27;20264;-62
2022/11/12 03:27:58;;;;;;;;;;;;;;;;;;5069996;27;20384;-62
2022/11/12 03:30:28;;;;;;;;;;;;;;;;;;5069885;27;20341;-62
2022/11/12 03:32:53;;;;;;;;;;;;;;;;;;5071681;27;20314;-62
2022/11/12 03:35:19;;;;;;;;;;;;;;;;;;5069355;27;20422;-62
2022/11/12 03:37:44;;;;;;;;;;;;;;;;;;5051800;27;20325;-62
2022/11/12 03:40:10;;;;;;;;;;;;;;;;;;5069736;27;20387;-62
2022/11/12 03:42:35;;;;;;;;;;;;;;;;;;5069978;27;19973;-62
2022/11/12 03:45:00;;;;;;;;;;;;;;;;;;5069418;27;20269;-62
2022/11/12 03:47:26;;;;;;;;;;;;;;;;;;5069692;27;20265;-61
2022/11/12 03:49:51;;;;;;;;;;;;;;;;;;5070007;27;20195;-61
2022/11/12 03:52:16;;;;;;;;;;;;;;;;;;5069003;27;20349;-62
2022/11/12 03:54:42;;;;;;;;;;;;;;;;;;5050972;27;20464;-62
2022/11/12 03:57:07;;;;;;;;;;;;;;;;;;5069457;27;20333;-62
2022/11/12 03:59:32;;;;;;;;;;;;;;;;;;5069528;27;20298;-62
2022/11/12 04:01:58;;;;;;;;;;;;;;;;;;5069683;27;20326;-61
2022/11/12 04:08:34;;;;;;;;;;;;;;;;;;5069224;27;19916;-62
2022/11/12 04:09:52;;;;;;;;;;;;;;;;;;5068947;27;20253;-61
2022/11/12 04:15:02;;;;;;;;;;;;;;;;;;5070085;27;20305;-61
2022/11/12 04:22:55;;;;;;;;;;;;;;;;;;5069098;28;20345;-62
2022/11/12 04:28:04;;;;;;;;;;;;;;;;;;5069633;28;20265;-62
2022/11/12 04:30:30;;;;;;;;;;;;;;;;;;5069363;28;20277;-62
2022/11/12 04:32:55;;;;;;;;;;;;;;;;;;5068916;28;20261;-62
2022/11/12 04:35:22;;;;;;;;;;;;;;;;;;5068965;28;20324;-62
2022/11/12 04:37:48;;;;;;;;;;;;;;;;;;5068530;28;20010;-62
2022/11/12 04:45:48;;;;;;;;;;;;;;;;;;5070083;28;19938;-61
2022/11/12 04:48:14;;;;;;;;;;;;;;;;;;5070288;28;20305;-62
2022/11/12 04:50:40;;;;;;;;;;;;;;;;;;5050732;28;20329;-62
2022/11/12 04:53:06;;;;;;;;;;;;;;;;;;5068862;28;20360;-62
2022/11/12 04:55:31;;;;;;;;;;;;;;;;;;5068559;28;20301;-61
2022/11/12 04:57:57;;;;;;;;;;;;;;;;;;5068664;28;19916;-62
2022/11/12 05:00:22;;;;;;;;;;;;;;;;;;5068917;28;20388;-61
2022/11/12 05:02:51;;;;;;;;;;;;;;;;;;5069368;28;20237;-62
2022/11/12 05:05:16;;;;;;;;;;;;;;;;;;5071379;27;19923;-62
2022/11/12 05:07:41;;;;;;;;;;;;;;;;;;5072678;27;20340;-61
2022/11/12 05:10:08;;;;;;;;;;;;;;;;;;5072491;27;20257;-62
2022/11/12 05:12:33;;;;;;;;;;;;;;;;;;5072385;27;20325;-61
2022/11/12 05:14:58;;;;;;;;;;;;;;;;;;5072581;27;20380;-61
2022/11/12 05:17:24;;;;;;;;;;;;;;;;;;5071528;27;20269;-61
2022/11/12 05:19:49;;;;;;;;;;;;;;;;;;5072302;27;20241;-61
2022/11/12 05:22:15;;;;;;;;;;;;;;;;;;5072474;27;19916;-62
2022/11/12 05:24:41;;;;;;;;;;;;;;;;;;5071765;27;20372;-62
2022/11/12 05:27:12;;;;;;;;;;;;;;;;;;5072490;27;20030;-61
2022/11/12 05:29:38;;;;;;;;;;;;;;;;;;5071763;27;20306;-61
2022/11/12 05:32:05;;;;;;;;;;;;;;;;;;5072544;27;20338;-62
2022/11/12 05:34:31;;;;;;;;;;;;;;;;;;5071993;27;20321;-61
2022/11/12 05:36:56;;;;;;;;;;;;;;;;;;5071817;27;20248;-61
2022/11/12 05:39:22;;;;;;;;;;;;;;;;;;5071616;27;20310;-62
2022/11/12 05:41:47;;;;;;;;;;;;;;;;;;5072363;27;20333;-62
2022/11/12 05:44:13;;;;;;;;;;;;;;;;;;5073121;27;20328;-62
2022/11/12 05:46:38;;;;;;;;;;;;;;;;;;5071492;27;20376;-62
2022/11/12 05:49:04;;;;;;;;;;;;;;;;;;5071774;27;20273;-61
2022/11/12 05:51:29;;;;;;;;;;;;;;;;;;5071420;27;20337;-61
2022/11/12 05:54:39;;;;;;;;;;;;;;;;;;4823664;27;1915826;-62
2022/11/12 05:57:04;;;;;;;;;;;;;;;;;;5007184;28;19920;-62
2022/11/12 05:59:30;;;;;;;;;;;;;;;;;;5006285;28;20456;-61
2022/11/12 06:01:55;;;;;;;;;;;;;;;;;;4945797;28;20323;-62
2022/11/12 06:04:22;;;;;;;;;;;;;;;;;;5005992;28;20282;-61
2022/11/12 06:06:47;;;;;;;;;;;;;;;;;;5006925;28;20295;-61
2022/11/12 06:09:12;;;;;;;;;;;;;;;;;;5005724;28;20035;-61
2022/11/12 06:11:38;;;;;;;;;;;;;;;;;;4947738;28;19952;-61
2022/11/12 06:14:04;;;;;;;;;;;;;;;;;;5005505;28;20405;-61
2022/11/12 06:16:29;;;;;;;;;;;;;;;;;;5006023;28;19975;-62
2022/11/12 06:18:55;;;;;;;;;;;;;;;;;;5005778;28;20393;-61
2022/11/12 06:21:21;;;;;;;;;;;;;;;;;;4954960;28;20007;-62
2022/11/12 06:23:52;;;;;;;;;;;;;;;;;;5005870;28;20252;-61
2022/11/12 06:26:18;;;;;;;;;;;;;;;;;;5003490;28;20438;-61
2022/11/12 06:28:44;;;;;;;;;;;;;;;;;;5005747;28;19917;-61
2022/11/12 06:31:10;;;;;;;;;;;;;;;;;;5006143;28;19917;-61
2022/11/12 06:33:35;;;;;;;;;;;;;;;;;;5005404;28;19982;-61
2022/11/12 06:36:03;;;;;;;;;;;;;;;;;;5005309;28;20270;-61
2022/11/12 06:38:29;;;;;;;;;;;;;;;;;;5006763;28;20388;-61
2022/11/12 06:40:55;;;;;;;;;;;;;;;;;;5004915;28;20281;-61
2022/11/12 06:43:20;;;;;;;;;;;;;;;;;;5004988;28;20275;-61
2022/11/12 06:45:45;;;;;;;;;;;;;;;;;;5005264;28;20316;-61
2022/11/12 06:48:11;;;;;;;;;;;;;;;;;;5005364;28;20267;-61
2022/11/12 06:50:36;;;;;;;;;;;;;;;;;;5005134;28;20339;-62
2022/11/12 06:53:02;;;;;;;;;;;;;;;;;;5009335;28;19943;-61
2022/11/12 06:55:27;;;;;;;;;;;;;;;;;;5026040;28;20392;-62
2022/11/12 06:57:52;;;;;;;;;;;;;;;;;;5024816;28;20427;-62
2022/11/12 07:00:19;;;;;;;;;;;;;;;;;;5025902;28;19940;-61
2022/11/12 07:02:44;;;;;;;;;;;;;;;;;;5024548;28;20323;-61
2022/11/12 07:05:09;;;;;;;;;;;;;;;;;;5016009;28;20376;-62
2022/11/12 07:07:35;;;;;;;;;;;;;;;;;;5009739;28;19917;-61
2022/11/12 07:10:00;;;;;;;;;;;;;;;;;;5008600;28;20282;-61
2022/11/12 07:12:26;;;;;;;;;;;;;;;;;;5011288;28;19917;-61
2022/11/12 07:14:51;;;;;;;;;;;;;;;;;;5011902;28;20376;-61
2022/11/12 07:17:16;;;;;;;;;;;;;;;;;;5011350;28;20298;-61
2022/11/12 07:19:42;;;;;;;;;;;;;;;;;;5011402;28;20239;-61
2022/11/12 07:22:07;;;;;;;;;;;;;;;;;;5011329;28;19916;-61
2022/11/12 07:24:32;;;;;;;;;;;;;;;;;;5011707;28;20335;-61
2022/11/12 07:26:58;;;;;;;;;;;;;;;;;;5012258;28;20303;-62
2022/11/12 07:29:23;;;;;;;;;;;;;;;;;;5011377;28;19916;-62
2022/11/12 07:31:48;;;;;;;;;;;;;;;;;;5011380;28;19995;-61
2022/11/12 07:34:14;;;;;;;;;;;;;;;;;;5010939;28;19940;-61
2022/11/12 07:36:39;;;;;;;;;;;;;;;;;;5010844;28;19917;-62
2022/11/12 07:39:05;;;;;;;;;;;;;;;;;;5011281;28;20304;-62
2022/11/12 07:41:30;;;;;;;;;;;;;;;;;;5012632;28;20409;-61
2022/11/12 07:43:55;;;;;;;;;;;;;;;;;;5011598;28;20293;-61
2022/11/12 07:46:23;;;;;;;;;;;;;;;;;;5010850;28;20346;-61
2022/11/12 07:48:49;;;;;;;;;;;;;;;;;;5010426;28;20267;-61
2022/11/12 07:51:17;;;;;;;;;;;;;;;;;;5008675;28;19976;-63
2022/11/12 07:53:43;;;;;;;;;;;;;;;;;;5010263;28;20327;-63
2022/11/12 07:56:10;;;;;;;;;;;;;;;;;;5012623;28;20373;-61
2022/11/12 07:58:36;;;;;;;;;;;;;;;;;;5011779;28;20222;-61
2022/11/12 08:01:38;;;;;;;;;;;;;;;;;;5010419;28;20255;-61
2022/11/12 08:04:06;;;;;;;;;;;;;;;;;;4978494;28;20403;-61
2022/11/12 08:06:32;;;;;;;;;;;;;;;;;;5010332;28;19940;-61
2022/11/12 08:08:59;;;;;;;;;;;;;;;;;;5010251;28;20327;-61
2022/11/12 08:11:25;;;;;;;;;;;;;;;;;;5010114;28;20322;-61
2022/11/12 08:13:50;;;;;;;;;;;;;;;;;;5011248;28;20271;-62
2022/11/12 08:16:16;;;;;;;;;;;;;;;;;;5009105;28;20239;-61
2022/11/12 08:18:42;;;;;;;;;;;;;;;;;;5009912;28;20334;-61
2022/11/12 08:21:10;;;;;;;;;;;;;;;;;;5009945;28;20208;-61
2022/11/12 08:23:35;;;;;;;;;;;;;;;;;;5008233;28;20346;-61
2022/11/12 08:26:03;;;;;;;;;;;;;;;;;;5010542;28;20235;-61
2022/11/12 08:28:29;;;;;;;;;;;;;;;;;;5010768;28;20392;-62
2022/11/12 08:30:55;;;;;;;;;;;;;;;;;;5010490;28;20064;-61
2022/11/12 08:33:21;;;;;;;;;;;;;;;;;;5009564;28;19987;-62
2022/11/12 08:35:49;;;;;;;;;;;;;;;;;;5009627;28;20289;-62
2022/11/12 08:38:15;;;;;;;;;;;;;;;;;;5010418;28;20366;-62
2022/11/12 08:40:40;;;;;;;;;;;;;;;;;;5009853;28;20232;-62
2022/11/12 08:43:08;;;;;;;;;;;;;;;;;;5009821;28;19916;-62
2022/11/12 08:45:35;;;;;;;;;;;;;;;;;;5009403;28;20412;-61
2022/11/12 08:48:03;;;;;;;;;;;;;;;;;;5009463;28;20337;-62
2022/11/12 08:50:28;;;;;;;;;;;;;;;;;;5008560;28;20292;-62
2022/11/12 08:53:06;;;;;;;;;;;;;;;;;;5009101;28;20318;-61
2022/11/12 08:55:32;;;;;;;;;;;;;;;;;;5009360;28;20343;-62
2022/11/12 08:58:00;;;;;;;;;;;;;;;;;;5009693;28;20346;-62
2022/11/12 09:00:31;;;;;;;;;;;;;;;;;;5009263;28;20224;-62
2022/11/12 09:03:00;;;;;;;;;;;;;;;;;;5009646;28;20332;-62
2022/11/12 09:05:25;;;;;;;;;;;;;;;;;;5009146;28;19916;-61
2022/11/12 09:08:01;;;;;;;;;;;;;;;;;;5010377;28;20318;-61
2022/11/12 09:10:26;;;;;;;;;;;;;;;;;;5009164;28;20313;-62
2022/11/12 09:12:52;;;;;;;;;;;;;;;;;;5009281;28;19917;-62
2022/11/12 09:15:19;;;;;;;;;;;;;;;;;;5009041;28;19916;-62
2022/11/12 09:17:44;;;;;;;;;;;;;;;;;;5008743;28;19916;-62
2022/11/12 09:20:10;;;;;;;;;;;;;;;;;;5008823;28;19981;-62
2022/11/12 09:22:35;;;;;;;;;;;;;;;;;;5009359;28;20231;-62
2022/11/12 09:25:00;;;;;;;;;;;;;;;;;;5008573;28;20300;-62
2022/11/12 09:27:26;;;;;;;;;;;;;;;;;;5008816;28;19981;-62
2022/11/12 09:29:52;;;;;;;;;;;;;;;;;;5008901;28;19948;-62
2022/11/12 09:32:17;;;;;;;;;;;;;;;;;;5009354;28;20318;-62
2022/11/12 09:34:42;;;;;;;;;;;;;;;;;;5009084;28;20330;-62
2022/11/12 09:37:08;;;;;;;;;;;;;;;;;;5008579;28;20251;-62
2022/11/12 09:39:33;;;;;;;;;;;;;;;;;;5008828;28;20259;-62
2022/11/12 09:41:58;;;;;;;;;;;;;;;;;;5009876;28;20354;-62
2022/11/12 09:44:24;;;;;;;;;;;;;;;;;;5008823;28;20243;-62
2022/11/12 09:47:08;;;;;;;;;;;;;;;;;;5007279;28;20327;-62
2022/11/12 09:49:54;;;;;;;;;;;;;;;;;;5007055;28;20340;-62
2022/11/12 09:52:23;;;;;;;;;;;;;;;;;;5007579;28;19917;-62
2022/11/12 09:54:56;;;;;;;;;;;;;;;;;;5006989;28;20315;-62
2022/11/12 09:57:21;;;;;;;;;;;;;;;;;;5007313;28;20312;-62
2022/11/12 09:59:47;;;;;;;;;;;;;;;;;;5008927;28;20254;-62
2022/11/12 10:02:18;;;;;;;;;;;;;;;;;;5008508;28;20302;-62
2022/11/12 10:05:08;;;;;;;;;;;;;;;;;;5007298;28;20379;-62
2022/11/12 10:07:55;;;;;;;;;;;;;;;;;;5008448;28;19921;-61
2022/11/12 10:10:42;;;;;;;;;;;;;;;;;;5009161;28;20327;-62
2022/11/12 10:13:10;;;;;;;;;;;;;;;;;;5008263;28;20311;-61
2022/11/12 10:19:08;;;;;;;;;;;;;;;;;;5008676;28;20223;-62
2022/11/12 10:21:39;;;;;;;;;;;;;;;;;;4997878;28;19925;-61
2022/11/12 10:24:08;;;;;;;;;;;;;;;;;;5009791;28;20313;-61
2022/11/12 10:26:33;;;;;;;;;;;;;;;;;;5008375;28;19964;-62
2022/11/12 10:29:17;;;;;;;;;;;;;;;;;;5008277;28;20398;-62
2022/11/12 10:31:42;;;;;;;;;;;;;;;;;;5008836;28;20311;-61
2022/11/12 10:34:17;;;;;;;;;;;;;;;;;;5008002;28;20220;-62
2022/11/12 10:36:47;;;;;;;;;;;;;;;;;;5009269;28;19972;-62
2022/11/12 10:39:39;;;;;;;;;;;;;;;;;;5007954;28;20315;-62
2022/11/12 10:42:10;;;;;;;;;;;;;;;;;;5011697;28;20388;-62
2022/11/12 10:44:37;;;;;;;;;;;;;;;;;;5011905;28;20237;-62
2022/11/12 10:47:25;;;;;;;;;;;;;;;;;;5011455;28;20404;-62
2022/11/12 10:50:17;;;;;;;;;;;;;;;;;;5010273;28;20412;-62
2022/11/12 10:52:57;;;;;;;;;;;;;;;;;;5002136;28;20227;-62
2022/11/12 10:55:33;;;;;;;;;;;;;;;;;;5012517;28;20207;-62
2022/11/12 10:58:08;;;;;;;;;;;;;;;;;;5011425;28;20315;-62
2022/11/12 11:00:34;;;;;;;;;;;;;;;;;;5012906;28;20378;-62
2022/11/12 11:03:02;;;;;;;;;;;;;;;;;;5009804;28;20320;-62
2022/11/12 11:05:48;;;;;;;;;;;;;;;;;;5011408;28;19986;-62
2022/11/12 11:08:29;;;;;;;;;;;;;;;;;;5011256;28;20399;-62
2022/11/12 11:11:28;;;;;;;;;;;;;;;;;;5010603;28;20246;-62
2022/11/12 11:14:12;;;;;;;;;;;;;;;;;;5008001;28;20363;-62
2022/11/12 11:16:49;;;;;;;;;;;;;;;;;;5011237;28;20377;-62
2022/11/12 11:19:14;;;;;;;;;;;;;;;;;;5010680;28;20380;-62
2022/11/12 11:21:51;;;;;;;;;;;;;;;;;;5012523;28;20335;-62
2022/11/12 11:24:32;;;;;;;;;;;;;;;;;;5010583;28;19920;-62
2022/11/12 11:27:18;;;;;;;;;;;;;;;;;;5010520;28;20394;-62
2022/11/12 11:30:11;;;;;;;;;;;;;;;;;;5009926;28;20323;-62
2022/11/12 11:32:51;;;;;;;;;;;;;;;;;;5011839;28;20336;-62
2022/11/12 11:35:42;;;;;;;;;;;;;;;;;;5010885;28;20246;-62
2022/11/12 11:38:29;;;;;;;;;;;;;;;;;;5010779;28;20361;-62
2022/11/12 11:41:11;;;;;;;;;;;;;;;;;;5010969;28;20389;-62
2022/11/12 11:43:50;;;;;;;;;;;;;;;;;;5010178;28;20366;-62
2022/11/12 11:46:36;;;;;;;;;;;;;;;;;;5008934;28;20318;-62
2022/11/12 11:49:43;;;;;;;;;;;;;;;;;;5010742;28;20200;-62
2022/11/12 11:52:43;;;;;;;;;;;;;;;;;;4989037;28;20355;-62
2022/11/12 11:55:08;;;;;;;;;;;;;;;;;;5008985;28;20270;-62
2022/11/12 11:57:50;;;;;;;;;;;;;;;;;;5009948;28;20250;-62
2022/11/12 12:00:20;;;;;;;;;;;;;;;;;;5008746;28;19952;-62
2022/11/12 12:03:11;;;;;;;;;;;;;;;;;;5008543;28;20397;-62
2022/11/12 12:05:53;;;;;;;;;;;;;;;;;;5009261;28;20329;-62
2022/11/12 12:08:53;;;;;;;;;;;;;;;;;;5010170;28;20382;-62
2022/11/12 12:11:40;;;;;;;;;;;;;;;;;;4918362;28;20345;-62
2022/11/12 12:14:28;;;;;;;;;;;;;;;;;;4995298;28;20416;-62
2022/11/12 12:17:27;;;;;;;;;;;;;;;;;;5011395;28;20327;-62
2022/11/12 12:20:20;;;;;;;;;;;;;;;;;;5009674;28;20370;-62
2022/11/12 12:22:51;;;;;;;;;;;;;;;;;;5009631;28;20357;-62
2022/11/12 12:25:22;;;;;;;;;;;;;;;;;;5008407;28;19943;-63
2022/11/12 12:27:54;;;;;;;;;;;;;;;;;;5008502;28;20204;-63
2022/11/12 12:30:21;;;;;;;;;;;;;;;;;;5008051;28;19980;-63
2022/11/12 12:33:27;;;;;;;;;;;;;;;;;;5010192;28;20293;-62
2022/11/12 12:36:01;;;;;;;;;;;;;;;;;;5000793;28;20280;-62
2022/11/12 12:38:47;;;;;;;;;;;;;;;;;;5009958;28;19917;-62
2022/11/12 12:41:41;;;;;;;;;;;;;;;;;;5008101;28;20240;-63
2022/11/12 12:44:08;;;;;;;;;;;;;;;;;;5010294;28;20230;-63
2022/11/12 12:47:03;;;;;;;;;;;;;;;;;;5009163;28;20274;-63
2022/11/12 12:49:33;;;;;;;;;;;;;;;;;;5006907;28;19916;-63
2022/11/12 12:51:58;;;;;;;;;;;;;;;;;;5007391;28;20271;-62
2022/11/12 12:54:36;;;;;;;;;;;;;;;;;;5008449;28;19920;-63
2022/11/12 12:57:24;;;;;;;;;;;;;;;;;;5009546;28;20279;-62
2022/11/12 12:59:50;;;;;;;;;;;;;;;;;;5007663;28;20274;-62
2022/11/12 13:02:23;;;;;;;;;;;;;;;;;;5008544;28;19916;-64
2022/11/12 13:04:54;;;;;;;;;;;;;;;;;;5007537;28;20248;-63
2022/11/12 13:07:39;;;;;;;;;;;;;;;;;;5009082;28;20339;-62
2022/11/12 13:10:52;;;;;;;;;;;;;;;;;;5007732;28;20293;-63
2022/11/12 13:13:18;;;;;;;;;;;;;;;;;;4995392;28;20235;-62
2022/11/12 13:15:47;;;;;;;;;;;;;;;;;;5008414;28;20316;-62
2022/11/12 13:18:55;;;;;;;;;;;;;;;;;;4957018;28;20328;-62
2022/11/12 13:21:21;;;;;;;;;;;;;;;;;;5010116;28;20331;-62
2022/11/12 13:24:06;;;;;;;;;;;;;;;;;;5008754;28;20361;-62
2022/11/12 13:26:54;;;;;;;;;;;;;;;;;;5008805;28;20296;-62
2022/11/12 13:29:26;;;;;;;;;;;;;;;;;;5009181;28;20380;-63
2022/11/12 13:32:29;;;;;;;;;;;;;;;;;;5008683;28;20021;-63
2022/11/12 13:35:16;;;;;;;;;;;;;;;;;;5009296;28;20365;-63
2022/11/12 13:37:55;;;;;;;;;;;;;;;;;;5009416;28;20319;-63
2022/11/12 13:40:51;;;;;;;;;;;;;;;;;;5008455;28;19943;-63
2022/11/12 13:43:34;;;;;;;;;;;;;;;;;;5008725;28;20212;-62
2022/11/12 13:46:06;;;;;;;;;;;;;;;;;;5007397;28;19916;-62
2022/11/12 13:49:02;;;;;;;;;;;;;;;;;;5008551;28;19979;-62
2022/11/12 13:51:30;;;;;;;;;;;;;;;;;;4651832;28;10002205;-62
2022/11/12 13:53:55;;;;;;;;;;;;;;;;;;5008093;28;20271;-62
2022/11/12 13:56:32;;;;;;;;;;;;;;;;;;5009310;28;20248;-62
2022/11/12 13:59:18;;;;;;;;;;;;;;;;;;5008405;28;20238;-63
2022/11/12 14:01:44;;;;;;;;;;;;;;;;;;5006433;28;20277;-62
2022/11/12 14:04:13;;;;;;;;;;;;;;;;;;5006735;28;20011;-63
2022/11/12 14:06:42;;;;;;;;;;;;;;;;;;5007283;28;19917;-62
2022/11/12 14:09:31;;;;;;;;;;;;;;;;;;5006733;28;20346;-62
2022/11/12 14:12:22;;;;;;;;;;;;;;;;;;5008629;28;20004;-62
2022/11/12 14:15:12;;;;;;;;;;;;;;;;;;5009871;28;20368;-62
2022/11/12 14:17:59;;;;;;;;;;;;;;;;;;5012127;28;20442;-62
2022/11/12 14:20:30;;;;;;;;;;;;;;;;;;5011562;28;19917;-62
2022/11/12 14:22:55;;;;;;;;;;;;;;;;;;5010669;28;19954;-62
2022/11/12 14:25:22;;;;;;;;;;;;;;;;;;5010383;28;20315;-64
2022/11/12 14:27:52;;;;;;;;;;;;;;;;;;5013676;28;19964;-64
2022/11/12 14:30:27;;;;;;;;;;;;;;;;;;5012204;28;20380;-62
2022/11/12 14:33:16;;;;;;;;;;;;;;;;;;5012790;28;20311;-62
2022/11/12 14:35:42;;;;;;;;;;;;;;;;;;5010745;28;20335;-62
2022/11/12 14:38:38;;;;;;;;;;;;;;;;;;5009943;28;20239;-62
2022/11/12 14:41:09;;;;;;;;;;;;;;;;;;5010845;28;19955;-62
2022/11/12 14:43:44;;;;;;;;;;;;;;;;;;5010775;28;20403;-62
2022/11/12 14:46:34;;;;;;;;;;;;;;;;;;5011781;28;20398;-62
2022/11/12 14:49:03;;;;;;;;;;;;;;;;;;5011421;28;20357;-64
2022/11/12 14:51:31;;;;;;;;;;;;;;;;;;5009995;28;20317;-64
2022/11/12 14:54:01;;;;;;;;;;;;;;;;;;5009407;28;20368;-62
2022/11/12 14:56:30;;;;;;;;;;;;;;;;;;5010368;28;20345;-62
2022/11/12 14:58:56;;;;;;;;;;;;;;;;;;5011306;28;20448;-62
2022/11/12 15:01:31;;;;;;;;;;;;;;;;;;5010026;28;19917;-62
2022/11/12 15:04:24;;;;;;;;;;;;;;;;;;5011305;28;20410;-62
2022/11/12 15:06:52;;;;;;;;;;;;;;;;;;5009789;28;20239;-62
2022/11/12 15:09:29;;;;;;;;;;;;;;;;;;5011413;28;20359;-62
2022/11/12 15:11:55;;;;;;;;;;;;;;;;;;5011066;28;20319;-62
2022/11/12 15:14:23;;;;;;;;;;;;;;;;;;5011492;28;20295;-62
2022/11/12 15:16:49;;;;;;;;;;;;;;;;;;5011416;28;19943;-62
2022/11/12 15:19:23;;;;;;;;;;;;;;;;;;5011432;28;19945;-62
2022/11/12 15:21:57;;;;;;;;;;;;;;;;;;5010937;28;20247;-62
2022/11/12 15:24:33;;;;;;;;;;;;;;;;;;5010641;28;20349;-62
2022/11/12 15:27:00;;;;;;;;;;;;;;;;;;5010401;28;20370;-62
2022/11/12 15:29:34;;;;;;;;;;;;;;;;;;5009503;28;20297;-62
2022/11/12 15:32:13;;;;;;;;;;;;;;;;;;5010680;28;19956;-62
2022/11/12 15:34:38;;;;;;;;;;;;;;;;;;4960213;28;19943;-62
2022/11/12 15:37:16;;;;;;;;;;;;;;;;;;5011895;28;20331;-62
2022/11/12 15:39:43;;;;;;;;;;;;;;;;;;5011266;28;19928;-62
2022/11/12 15:42:15;;;;;;;;;;;;;;;;;;5011887;28;20251;-62
2022/11/12 15:44:40;;;;;;;;;;;;;;;;;;5011891;28;20284;-62
2022/11/12 15:47:11;;;;;;;;;;;;;;;;;;5009500;28;20396;-62
2022/11/12 15:49:52;;;;;;;;;;;;;;;;;;5009438;28;20258;-62
2022/11/12 15:52:18;;;;;;;;;;;;;;;;;;4981856;28;20402;-62
2022/11/12 15:54:43;;;;;;;;;;;;;;;;;;4991742;28;20353;-63
2022/11/12 15:57:14;;;;;;;;;;;;;;;;;;5010103;28;20393;-62
2022/11/12 15:59:40;;;;;;;;;;;;;;;;;;5010262;28;19917;-62
2022/11/12 16:02:13;;;;;;;;;;;;;;;;;;5008405;28;20326;-62
2022/11/12 16:04:38;;;;;;;;;;;;;;;;;;5009053;28;20224;-62
2022/11/12 16:07:06;;;;;;;;;;;;;;;;;;5011580;28;20219;-62
2022/11/12 16:09:33;;;;;;;;;;;;;;;;;;4960117;28;20366;-62
2022/11/12 16:11:59;;;;;;;;;;;;;;;;;;5010204;28;20334;-62
2022/11/12 16:14:25;;;;;;;;;;;;;;;;;;5010079;28;19920;-62
2022/11/12 16:16:51;;;;;;;;;;;;;;;;;;5008910;28;20214;-62
2022/11/12 16:19:16;;;;;;;;;;;;;;;;;;5010003;28;19920;-62
2022/11/12 16:21:42;;;;;;;;;;;;;;;;;;5010279;28;20307;-62
2022/11/12 16:24:07;;;;;;;;;;;;;;;;;;5010343;28;20389;-62
2022/11/12 16:26:33;;;;;;;;;;;;;;;;;;5009795;28;19921;-62
2022/11/12 16:28:59;;;;;;;;;;;;;;;;;;5008515;28;20381;-62
2022/11/12 16:31:24;;;;;;;;;;;;;;;;;;5009995;28;19974;-62
2022/11/12 16:33:50;;;;;;;;;;;;;;;;;;5010160;28;20315;-63
2022/11/12 16:36:15;;;;;;;;;;;;;;;;;;5010926;28;20385;-62
2022/11/12 16:38:41;;;;;;;;;;;;;;;;;;5008458;28;20266;-62
2022/11/12 16:41:11;;;;;;;;;;;;;;;;;;5009359;28;20330;-62
2022/11/12 16:43:37;;;;;;;;;;;;;;;;;;5009814;28;19991;-62
2022/11/12 16:46:11;;;;;;;;;;;;;;;;;;5009320;28;19916;-62
2022/11/12 16:48:37;;;;;;;;;;;;;;;;;;5008266;28;20445;-62
2022/11/12 16:51:03;;;;;;;;;;;;;;;;;;5009255;28;20216;-62
2022/11/12 16:53:29;;;;;;;;;;;;;;;;;;5009126;28;20387;-62
2022/11/12 16:55:56;;;;;;;;;;;;;;;;;;5010299;28;20349;-62
2022/11/12 16:58:21;;;;;;;;;;;;;;;;;;5008973;28;20262;-63
2022/11/12 17:00:51;;;;;;;;;;;;;;;;;;4957363;28;20270;-62
2022/11/12 17:03:16;;;;;;;;;;;;;;;;;;5008029;28;20298;-62
2022/11/12 17:05:42;;;;;;;;;;;;;;;;;;5009164;28;19964;-63
2022/11/12 17:08:08;;;;;;;;;;;;;;;;;;5008699;28;20363;-62
2022/11/12 17:10:33;;;;;;;;;;;;;;;;;;5009733;28;20345;-62
2022/11/12 17:12:59;;;;;;;;;;;;;;;;;;5008835;28;20371;-62
2022/11/12 17:15:24;;;;;;;;;;;;;;;;;;5010167;28;20374;-62
2022/11/12 17:17:52;;;;;;;;;;;;;;;;;;5010971;28;20373;-62
2022/11/12 17:20:18;;;;;;;;;;;;;;;;;;5008998;28;20358;-62
2022/11/12 17:22:43;;;;;;;;;;;;;;;;;;5009378;28;20406;-62
2022/11/12 17:25:09;;;;;;;;;;;;;;;;;;5009764;28;20256;-62
2022/11/12 17:27:34;;;;;;;;;;;;;;;;;;5010031;28;20254;-65
2022/11/12 17:30:00;;;;;;;;;;;;;;;;;;5010566;28;20368;-65
2022/11/12 17:32:26;;;;;;;;;;;;;;;;;;5009234;28;20346;-65